Time;durP1;ratioP1;P1;durP2;ratioP2;P2;SDS_P1;SDS_P2;PMS_P1;PMS_P2;Temp;Humidity;BMP_temperature;BMP_pressure;BME280_temperature;BME280_humidity;BME280_pressure;Samples;Min_cycle;Max_cycle;Signal;HPM_P1;HPM_P2
2022/10/22 00:02:21;;;;;;;19.00;14.67;;;;;;;;;;6622747;28;20253;-83
2022/10/22 00:05:32;;;;;;;18.77;14.30;;;;;;;;;;6622281;28;20172;-82
2022/10/22 00:08:42;;;;;;;18.23;14.30;;;;;;;;;;6622277;28;20179;-82
2022/10/22 00:11:52;;;;;;;19.30;13.83;;;;;;;;;;6622213;28;20179;-82
2022/10/22 00:15:03;;;;;;;19.57;14.67;;;;;;;;;;6622521;28;20195;-82
2022/10/22 00:18:14;;;;;;;20.73;14.83;;;;;;;;;;6622440;28;20179;-82
2022/10/22 00:21:27;;;;;;;20.63;15.33;;;;;;;;;;6622367;28;20206;-82
2022/10/22 00:24:38;;;;;;;21.67;15.37;;;;;;;;;;6622375;28;20254;-82
2022/10/22 00:27:49;;;;;;;20.93;15.93;;;;;;;;;;6604399;28;20643;-82
2022/10/22 00:31:00;;;;;;;20.63;15.23;;;;;;;;;;6623026;28;20250;-82
2022/10/22 00:34:10;;;;;;;22.13;15.57;;;;;;;;;;6622258;28;20167;-82
2022/10/22 00:37:20;;;;;;;23.70;16.70;;;;;;;;;;6621879;28;20171;-83
2022/10/22 00:40:30;;;;;;;22.03;15.30;;;;;;;;;;6622529;28;20266;-83
2022/10/22 00:43:58;;;;;;;23.30;16.17;;;;;;;;;;6621965;28;20203;-82
2022/10/22 00:47:08;;;;;;;23.10;15.43;;;;;;;;;;6622893;28;20164;-81
2022/10/22 00:50:39;;;;;;;19.37;15.30;;;;;;;;;;6622009;28;20180;-81
2022/10/22 00:53:52;;;;;;;21.30;16.00;;;;;;;;;;6621698;28;20526;-81
2022/10/22 00:57:02;;;;;;;21.87;16.23;;;;;;;;;;6621637;28;20231;-81
2022/10/22 01:00:13;;;;;;;20.73;16.63;;;;;;;;;;6621818;28;20651;-81
2022/10/22 01:03:24;;;;;;;19.93;15.23;;;;;;;;;;6622455;28;20206;-82
2022/10/22 01:06:34;;;;;;;22.87;15.90;;;;;;;;;;6621831;28;20171;-81
2022/10/22 01:10:23;;;;;;;19.83;14.97;;;;;;;;;;6622453;28;20172;-81
2022/10/22 01:13:36;;;;;;;20.80;15.27;;;;;;;;;;6515801;28;20192;-81
2022/10/22 01:16:51;;;;;;;21.17;14.97;;;;;;;;;;6508682;28;20244;-81
2022/10/22 01:20:02;;;;;;;20.30;15.70;;;;;;;;;;6626835;28;20164;-81
2022/10/22 01:23:12;;;;;;;21.10;14.37;;;;;;;;;;6626284;28;20200;-81
2022/10/22 01:26:40;;;;;;;17.90;14.03;;;;;;;;;;6626593;28;20168;-81
2022/10/22 01:29:52;;;;;;;21.57;15.93;;;;;;;;;;6626891;28;20176;-82
2022/10/22 01:33:05;;;;;;;20.43;15.63;;;;;;;;;;6626338;28;20555;-82
2022/10/22 01:36:16;;;;;;;18.43;14.93;;;;;;;;;;6625980;28;20254;-82
2022/10/22 01:39:28;;;;;;;20.13;15.30;;;;;;;;;;6626307;28;20180;-82
2022/10/22 01:42:38;;;;;;;20.23;14.47;;;;;;;;;;6626258;28;20191;-82
2022/10/22 01:45:55;;;;;;;22.10;16.67;;;;;;;;;;6625797;28;20191;-82
2022/10/22 01:49:10;;;;;;;21.27;15.03;;;;;;;;;;6626055;28;20180;-82
2022/10/22 01:52:29;;;;;;;20.97;15.53;;;;;;;;;;6625917;28;20490;-81
2022/10/22 01:55:55;;;;;;;20.50;14.70;;;;;;;;;;6626341;28;20228;-81
2022/10/22 01:59:11;;;;;;;18.63;14.60;;;;;;;;;;6625884;28;20192;-81
2022/10/22 02:02:28;;;;;;;24.10;16.07;;;;;;;;;;6626110;28;20239;-81
2022/10/22 02:05:41;;;;;;;19.27;14.93;;;;;;;;;;6625582;28;20167;-82
2022/10/22 02:08:53;;;;;;;21.53;15.30;;;;;;;;;;6625487;28;20258;-82
2022/10/22 02:12:05;;;;;;;18.83;14.83;;;;;;;;;;6625068;28;20172;-82
2022/10/22 02:15:17;;;;;;;20.97;15.83;;;;;;;;;;6607590;28;20595;-82
2022/10/22 02:18:29;;;;;;;20.30;15.70;;;;;;;;;;6625638;28;20251;-82
2022/10/22 02:21:40;;;;;;;20.60;15.53;;;;;;;;;;6625499;28;20200;-81
2022/10/22 02:24:50;;;;;;;20.83;15.50;;;;;;;;;;6624857;28;20578;-82
2022/10/22 02:28:11;;;;;;;25.97;15.07;;;;;;;;;;6624659;28;20174;-82
2022/10/22 02:31:23;;;;;;;21.13;15.77;;;;;;;;;;6625347;28;20172;-82
2022/10/22 02:34:33;;;;;;;20.13;14.83;;;;;;;;;;6625225;28;20256;-82
2022/10/22 02:37:44;;;;;;;20.87;15.43;;;;;;;;;;6624849;28;20248;-82
2022/10/22 02:40:55;;;;;;;21.43;15.63;;;;;;;;;;6606803;28;20589;-82
2022/10/22 02:44:07;;;;;;;18.70;14.63;;;;;;;;;;6606801;28;20182;-82
2022/10/22 02:47:18;;;;;;;21.63;16.63;;;;;;;;;;6624937;28;20179;-82
2022/10/22 02:50:28;;;;;;;19.50;15.23;;;;;;;;;;6624836;28;20167;-81
2022/10/22 02:53:39;;;;;;;21.27;15.97;;;;;;;;;;6624067;28;20203;-81
2022/10/22 02:56:49;;;;;;;19.67;15.57;;;;;;;;;;6624336;28;20557;-81
2022/10/22 02:59:59;;;;;;;21.13;17.43;;;;;;;;;;6624085;28;20192;-81
2022/10/22 03:03:09;;;;;;;27.13;19.70;;;;;;;;;;6623737;28;20204;-81
2022/10/22 03:06:20;;;;;;;24.90;19.97;;;;;;;;;;6624467;28;20180;-81
2022/10/22 03:09:30;;;;;;;26.30;19.07;;;;;;;;;;6624406;28;20255;-81
2022/10/22 03:12:40;;;;;;;22.43;17.10;;;;;;;;;;6623560;28;20648;-81
2022/10/22 03:15:51;;;;;;;24.73;18.13;;;;;;;;;;6623482;28;20171;-81
2022/10/22 03:19:01;;;;;;;21.47;16.63;;;;;;;;;;6605545;28;20606;-81
2022/10/22 03:22:31;;;;;;;23.20;17.17;;;;;;;;;;6623266;28;20203;-81
2022/10/22 03:25:42;;;;;;;22.00;15.93;;;;;;;;;;6623696;28;20187;-81
2022/10/22 03:28:53;;;;;;;23.73;16.07;;;;;;;;;;6623342;28;20313;-81
2022/10/22 03:32:03;;;;;;;19.57;15.27;;;;;;;;;;6623841;28;20175;-81
2022/10/22 03:35:14;;;;;;;19.53;14.87;;;;;;;;;;6623937;28;20180;-81
2022/10/22 03:38:24;;;;;;;21.37;14.83;;;;;;;;;;6605017;28;20242;-82
2022/10/22 03:41:35;;;;;;;20.00;14.87;;;;;;;;;;6622476;28;20199;-81
2022/10/22 03:44:46;;;;;;;19.33;15.37;;;;;;;;;;6622856;28;20172;-82
2022/10/22 03:47:56;;;;;;;18.73;14.57;;;;;;;;;;6622649;28;20203;-83
2022/10/22 03:51:07;;;;;;;20.63;15.43;;;;;;;;;;6622980;28;20254;-83
2022/10/22 03:54:17;;;;;;;21.93;15.87;;;;;;;;;;6605045;28;20210;-83
2022/10/22 03:57:27;;;;;;;22.27;16.50;;;;;;;;;;6623218;28;20232;-83
2022/10/22 04:00:38;;;;;;;24.40;17.07;;;;;;;;;;6622663;28;20199;-83
2022/10/22 04:03:49;;;;;;;22.20;17.93;;;;;;;;;;6622617;28;20298;-83
2022/10/22 04:07:00;;;;;;;23.63;17.70;;;;;;;;;;6622553;28;20183;-83
2022/10/22 04:10:10;;;;;;;22.33;16.57;;;;;;;;;;6622175;28;20168;-83
2022/10/22 04:13:20;;;;;;;20.10;15.73;;;;;;;;;;6622861;28;20180;-83
2022/10/22 04:16:31;;;;;;;21.90;15.13;;;;;;;;;;6623904;28;20167;-83
2022/10/22 04:19:42;;;;;;;19.23;14.80;;;;;;;;;;6622062;28;20222;-83
2022/10/22 04:22:52;;;;;;;23.50;15.63;;;;;;;;;;6622598;28;20207;-82
2022/10/22 04:26:04;;;;;;;20.00;15.73;;;;;;;;;;6623020;28;20516;-82
2022/10/22 04:29:14;;;;;;;19.77;15.23;;;;;;;;;;6622282;28;20238;-83
2022/10/22 04:32:25;;;;;;;22.40;15.20;;;;;;;;;;6621757;28;20171;-82
2022/10/22 04:35:37;;;;;;;23.67;15.60;;;;;;;;;;6622090;28;20176;-83
2022/10/22 04:38:53;;;;;;;31.27;19.53;;;;;;;;;;6622103;28;20176;-82
2022/10/22 04:42:03;;;;;;;32.67;22.33;;;;;;;;;;6622637;28;20269;-82
2022/10/22 04:45:14;;;;;;;27.13;20.23;;;;;;;;;;6622124;28;20183;-82
2022/10/22 04:48:24;;;;;;;27.43;19.87;;;;;;;;;;6622245;28;20194;-81
2022/10/22 04:51:35;;;;;;;25.13;18.30;;;;;;;;;;6624799;28;20262;-81
2022/10/22 04:54:45;;;;;;;22.53;17.03;;;;;;;;;;6626933;28;20172;-82
2022/10/22 04:57:56;;;;;;;22.60;16.23;;;;;;;;;;6627254;28;20234;-82
2022/10/22 05:01:13;;;;;;;20.77;15.50;;;;;;;;;;6627040;28;20171;-82
2022/10/22 05:04:24;;;;;;;20.47;15.33;;;;;;;;;;6626519;28;20644;-82
2022/10/22 05:07:34;;;;;;;20.67;14.87;;;;;;;;;;6626959;28;20229;-82
2022/10/22 05:10:44;;;;;;;20.03;15.07;;;;;;;;;;6627271;28;20167;-82
2022/10/22 05:13:55;;;;;;;21.10;15.07;;;;;;;;;;6627075;28;20178;-82
2022/10/22 05:17:06;;;;;;;20.73;14.60;;;;;;;;;;6627397;28;20620;-82
2022/10/22 05:20:16;;;;;;;19.40;15.07;;;;;;;;;;6627007;28;20164;-82
2022/10/22 05:23:27;;;;;;;21.60;16.00;;;;;;;;;;6626134;28;20202;-83
2022/10/22 05:26:37;;;;;;;20.27;15.70;;;;;;;;;;6608553;28;20573;-82
2022/10/22 05:29:47;;;;;;;21.57;14.83;;;;;;;;;;6626100;28;20624;-82
2022/10/22 05:32:57;;;;;;;19.20;14.17;;;;;;;;;;6626013;28;20203;-83
2022/10/22 05:36:11;;;;;;;19.30;14.23;;;;;;;;;;6626448;28;20221;-82
2022/10/22 05:39:21;;;;;;;19.53;14.10;;;;;;;;;;6625642;28;20222;-82
2022/10/22 05:42:32;;;;;;;17.93;13.97;;;;;;;;;;6626576;28;20294;-83
2022/10/22 05:45:42;;;;;;;19.40;14.07;;;;;;;;;;6625582;28;20644;-82
2022/10/22 05:48:56;;;;;;;19.27;13.57;;;;;;;;;;6625585;28;20171;-82
2022/10/22 05:52:07;;;;;;;17.90;13.30;;;;;;;;;;6625398;28;20249;-82
2022/10/22 05:55:17;;;;;;;17.67;13.93;;;;;;;;;;6625237;28;20563;-82
2022/10/22 05:58:27;;;;;;;18.00;14.13;;;;;;;;;;6625545;28;20187;-82
2022/10/22 06:01:38;;;;;;;18.87;13.93;;;;;;;;;;6624443;28;20211;-82
2022/10/22 06:04:49;;;;;;;18.27;14.60;;;;;;;;;;6624971;28;20172;-82
2022/10/22 06:07:59;;;;;;;18.83;14.10;;;;;;;;;;6625705;28;20581;-82
2022/10/22 06:11:10;;;;;;;19.10;13.77;;;;;;;;;;6625302;28;20167;-82
2022/10/22 06:14:20;;;;;;;18.20;13.83;;;;;;;;;;6625257;28;20182;-82
2022/10/22 06:17:31;;;;;;;17.97;13.10;;;;;;;;;;6625254;28;20628;-82
2022/10/22 06:20:42;;;;;;;20.90;13.93;;;;;;;;;;6607932;28;20171;-82
2022/10/22 06:23:54;;;;;;;19.87;14.53;;;;;;;;;;6624940;28;20215;-82
2022/10/22 06:27:05;;;;;;;20.57;14.30;;;;;;;;;;6625034;28;20176;-82
2022/10/22 06:30:15;;;;;;;15.93;12.17;;;;;;;;;;6625175;28;20516;-82
2022/10/22 06:33:27;;;;;;;17.80;13.43;;;;;;;;;;6625586;28;20184;-82
2022/10/22 06:36:37;;;;;;;18.87;13.97;;;;;;;;;;6607286;28;20176;-82
2022/10/22 06:39:47;;;;;;;18.03;13.93;;;;;;;;;;6625454;28;20519;-82
2022/10/22 06:43:01;;;;;;;15.97;13.73;;;;;;;;;;6624902;28;20210;-82
2022/10/22 06:46:12;;;;;;;16.43;13.57;;;;;;;;;;6624925;28;20258;-82
2022/10/22 06:49:22;;;;;;;19.23;13.23;;;;;;;;;;6624818;28;20183;-82
2022/10/22 06:52:33;;;;;;;17.53;13.30;;;;;;;;;;6624802;28;20555;-82
2022/10/22 06:55:43;;;;;;;16.77;12.93;;;;;;;;;;6624388;28;20234;-82
2022/10/22 06:58:54;;;;;;;17.23;12.53;;;;;;;;;;6624234;28;20325;-82
2022/10/22 07:02:05;;;;;;;17.30;13.93;;;;;;;;;;6624065;28;20200;-81
2022/10/22 07:05:15;;;;;;;15.63;12.90;;;;;;;;;;6624293;28;20259;-81
2022/10/22 07:08:25;;;;;;;15.50;12.40;;;;;;;;;;6624833;28;20514;-81
2022/10/22 07:11:39;;;;;;;14.90;12.20;;;;;;;;;;6624892;28;20651;-81
2022/10/22 07:14:49;;;;;;;15.23;12.80;;;;;;;;;;6604901;28;20695;-81
2022/10/22 07:18:00;;;;;;;18.07;12.93;;;;;;;;;;6623846;28;20175;-81
2022/10/22 07:21:11;;;;;;;17.97;13.57;;;;;;;;;;6624202;28;20255;-81
2022/10/22 07:24:22;;;;;;;16.07;12.23;;;;;;;;;;6623320;28;20552;-83
2022/10/22 07:27:32;;;;;;;16.30;11.80;;;;;;;;;;6623708;28;20172;-81
2022/10/22 07:30:42;;;;;;;16.53;12.53;;;;;;;;;;6623828;28;20202;-81
2022/10/22 07:33:53;;;;;;;16.07;12.17;;;;;;;;;;6624261;28;20599;-80
2022/10/22 07:37:04;;;;;;;13.37;11.93;;;;;;;;;;6605683;28;20180;-80
2022/10/22 07:40:14;;;;;;;13.50;10.97;;;;;;;;;;6623013;28;20179;-81
2022/10/22 07:43:25;;;;;;;14.23;11.33;;;;;;;;;;6623494;28;20203;-82
2022/10/22 07:46:35;;;;;;;13.87;11.50;;;;;;;;;;6623203;28;20530;-82
2022/10/22 07:49:45;;;;;;;13.20;11.23;;;;;;;;;;6623501;28;20176;-83
2022/10/22 07:52:55;;;;;;;11.47;9.33;;;;;;;;;;6605266;28;20175;-82
2022/10/22 07:56:06;;;;;;;11.93;10.23;;;;;;;;;;6622920;28;20219;-81
2022/10/22 07:59:16;;;;;;;11.60;10.37;;;;;;;;;;6622828;28;20544;-82
2022/10/22 08:02:27;;;;;;;13.53;10.43;;;;;;;;;;6622753;28;20203;-82
2022/10/22 08:05:38;;;;;;;11.37;10.03;;;;;;;;;;6622451;28;20199;-81
2022/10/22 08:08:48;;;;;;;12.37;10.43;;;;;;;;;;6623465;28;20179;-81
2022/10/22 08:11:58;;;;;;;11.80;10.40;;;;;;;;;;6622685;28;20259;-81
2022/10/22 08:15:09;;;;;;;14.20;10.40;;;;;;;;;;6622175;28;20199;-81
2022/10/22 08:18:19;;;;;;;14.03;10.93;;;;;;;;;;6622540;28;20175;-81
2022/10/22 08:21:30;;;;;;;13.20;9.97;;;;;;;;;;6605271;28;20341;-81
2022/10/22 08:24:40;;;;;;;16.00;10.63;;;;;;;;;;6622920;28;20202;-82
2022/10/22 08:27:50;;;;;;;11.43;10.20;;;;;;;;;;6622477;28;20168;-81
2022/10/22 08:31:01;;;;;;;14.13;10.50;;;;;;;;;;6622742;28;20208;-82
2022/10/22 08:34:11;;;;;;;13.80;10.17;;;;;;;;;;6621812;28;20175;-80
2022/10/22 08:37:21;;;;;;;14.77;11.53;;;;;;;;;;6621974;28;20321;-82
2022/10/22 08:40:33;;;;;;;11.70;10.50;;;;;;;;;;6622070;28;20168;-81
2022/10/22 08:44:02;;;;;;;12.40;10.70;;;;;;;;;;6622119;28;20546;-81
2022/10/22 08:47:27;;;;;;;12.80;10.23;;;;;;;;;;6622813;28;20172;-82
2022/10/22 08:50:40;;;;;;;28.57;22.77;;;;;;;;;;6622049;28;20229;-81
2022/10/22 08:53:53;;;;;;;15.30;12.57;;;;;;;;;;6622452;28;20184;-81
2022/10/22 08:57:07;;;;;;;38.80;25.83;;;;;;;;;;6602134;28;20585;-82
2022/10/22 09:00:23;;;;;;;51.90;29.90;;;;;;;;;;6619637;28;20246;-81
2022/10/22 09:03:36;;;;;;;146.87;67.23;;;;;;;;;;6619351;28;20211;-82
2022/10/22 09:06:47;;;;;;;33.70;20.77;;;;;;;;;;6601824;28;20182;-82
2022/10/22 09:09:58;;;;;;;40.83;25.87;;;;;;;;;;6619210;28;20176;-83
2022/10/22 09:13:11;;;;;;;21.50;15.70;;;;;;;;;;6621509;28;20163;-82
2022/10/22 09:16:42;;;;;;;31.83;23.50;;;;;;;;;;6622077;28;20172;-82
2022/10/22 09:20:07;;;;;;;44.97;31.13;;;;;;;;;;6622421;28;20180;-82
2022/10/22 09:23:30;;;;;;;25.33;20.20;;;;;;;;;;6621520;28;20198;-83
2022/10/22 09:26:40;;;;;;;52.40;38.97;;;;;;;;;;6622062;28;20156;-82
2022/10/22 09:29:51;;;;;;;58.60;37.93;;;;;;;;;;6621983;28;20569;-82
2022/10/22 09:33:10;;;;;;;56.10;36.97;;;;;;;;;;6622054;28;20608;-82
2022/10/22 09:36:21;;;;;;;44.17;30.47;;;;;;;;;;6621483;28;20164;-82
2022/10/22 09:39:33;;;;;;;60.03;46.90;;;;;;;;;;6625950;28;20535;-83
2022/10/22 09:42:44;;;;;;;41.83;28.50;;;;;;;;;;6625952;28;20610;-84
2022/10/22 09:45:56;;;;;;;25.13;17.60;;;;;;;;;;6626536;28;20191;-83
2022/10/22 09:49:12;;;;;;;27.87;18.87;;;;;;;;;;6626169;28;20187;-84
2022/10/22 09:52:25;;;;;;;42.10;25.20;;;;;;;;;;6608162;28;20598;-82
2022/10/22 09:55:37;;;;;;;45.63;25.93;;;;;;;;;;6626782;28;20221;-80
2022/10/22 09:58:49;;;;;;;49.83;30.17;;;;;;;;;;6626126;28;20275;-81
2022/10/22 10:02:02;;;;;;;62.20;33.03;;;;;;;;;;6625648;28;20553;-81
2022/10/22 10:05:19;;;;;;;54.93;30.57;;;;;;;;;;6625534;28;20179;-82
2022/10/22 10:08:30;;;;;;;49.23;27.33;;;;;;;;;;6607891;28;20698;-82
2022/10/22 10:12:00;;;;;;;18.93;14.03;;;;;;;;;;6625497;28;20172;-81
2022/10/22 10:15:18;;;;;;;27.17;17.63;;;;;;;;;;6625866;28;20719;-81
2022/10/22 10:18:47;;;;;;;28.87;17.13;;;;;;;;;;6625853;28;20164;-81
2022/10/22 10:21:57;;;;;;;27.80;16.10;;;;;;;;;;6625293;28;20221;-82
2022/10/22 10:25:16;;;;;;;38.90;22.50;;;;;;;;;;6625192;28;20163;-82
2022/10/22 10:28:32;;;;;;;44.27;23.73;;;;;;;;;;6625978;28;20198;-83
2022/10/22 10:31:42;;;;;;;26.70;17.57;;;;;;;;;;6625832;28;20180;-84
2022/10/22 10:34:56;;;;;;;44.00;25.20;;;;;;;;;;6624678;28;20172;-84
2022/10/22 10:38:12;;;;;;;35.97;20.87;;;;;;;;;;6625703;28;20172;-84
2022/10/22 10:41:25;;;;;;;23.03;15.03;;;;;;;;;;6624622;28;20595;-83
2022/10/22 10:44:35;;;;;;;54.90;29.77;;;;;;;;;;6625214;28;20163;-83
2022/10/22 10:47:55;;;;;;;46.03;27.37;;;;;;;;;;6624510;28;20172;-83
2022/10/22 10:51:05;;;;;;;29.13;20.33;;;;;;;;;;6625511;28;20164;-83
2022/10/22 10:54:15;;;;;;;17.50;14.40;;;;;;;;;;6624637;28;20172;-83
2022/10/22 10:57:35;;;;;;;13.83;12.37;;;;;;;;;;6624544;28;20254;-83
2022/10/22 11:00:55;;;;;;;16.03;13.20;;;;;;;;;;6623252;28;20188;-83
2022/10/22 11:04:21;;;;;;;14.33;11.03;;;;;;;;;;6623290;28;20219;-82
2022/10/22 11:07:35;;;;;;;12.93;11.33;;;;;;;;;;6606447;28;20643;-82
2022/10/22 11:10:46;;;;;;;16.27;12.40;;;;;;;;;;6623761;28;20179;-82
2022/10/22 11:14:06;;;;;;;13.93;12.10;;;;;;;;;;6624770;28;20564;-82
2022/10/22 11:17:19;;;;;;;12.50;10.77;;;;;;;;;;6623580;28;20168;-82
2022/10/22 11:20:50;;;;;;;14.33;12.70;;;;;;;;;;6606747;28;20612;-82
2022/10/22 11:24:01;;;;;;;12.50;11.17;;;;;;;;;;6623546;28;20250;-82
2022/10/22 11:27:29;;;;;;;13.00;11.00;;;;;;;;;;6623389;28;20164;-82
2022/10/22 11:30:42;;;;;;;13.60;11.30;;;;;;;;;;6624357;28;20164;-82
2022/10/22 11:33:56;;;;;;;36.30;26.40;;;;;;;;;;6622781;28;20187;-82
2022/10/22 11:37:09;;;;;;;44.27;29.83;;;;;;;;;;6623904;28;20593;-81
2022/10/22 11:40:20;;;;;;;20.07;14.70;;;;;;;;;;6623341;28;20171;-81
2022/10/22 11:43:35;;;;;;;37.17;24.63;;;;;;;;;;6622959;28;20683;-82
2022/10/22 11:46:54;;;;;;;80.47;45.20;;;;;;;;;;6622971;28;20168;-82
2022/10/22 11:50:21;;;;;;;34.43;23.67;;;;;;;;;;6623245;28;20597;-81
2022/10/22 11:53:33;;;;;;;16.63;13.27;;;;;;;;;;6622492;28;20179;-81
2022/10/22 11:56:43;;;;;;;21.80;17.07;;;;;;;;;;6622531;28;20274;-82
2022/10/22 11:59:58;;;;;;;26.33;20.63;;;;;;;;;;6604206;28;20282;-82
2022/10/22 12:03:39;;;;;;;19.70;15.83;;;;;;;;;;6622647;28;20555;-81
2022/10/22 12:06:54;;;;;;;18.03;13.07;;;;;;;;;;6623191;28;20167;-80
2022/10/22 12:10:15;;;;;;;21.13;14.93;;;;;;;;;;6622812;28;20179;-80
2022/10/22 12:13:29;;;;;;;19.93;15.80;;;;;;;;;;6622183;28;20171;-81
2022/10/22 12:16:42;;;;;;;20.03;15.20;;;;;;;;;;6604532;28;20175;-80
2022/10/22 12:20:01;;;;;;;18.47;14.63;;;;;;;;;;6622148;28;20586;-80
2022/10/22 12:23:12;;;;;;;28.97;18.63;;;;;;;;;;6622187;28;20207;-81
2022/10/22 12:26:27;;;;;;;28.77;22.07;;;;;;;;;;6622204;28;20172;-80
2022/10/22 12:29:37;;;;;;;51.57;35.77;;;;;;;;;;6622191;28;20234;-81
2022/10/22 12:32:51;;;;;;;38.13;28.10;;;;;;;;;;6623081;28;20176;-80
2022/10/22 12:36:03;;;;;;;26.00;20.97;;;;;;;;;;6621721;28;20195;-82
2022/10/22 12:39:15;;;;;;;17.37;14.90;;;;;;;;;;6622176;28;20237;-81
2022/10/22 12:42:25;;;;;;;16.67;14.37;;;;;;;;;;6622011;28;20204;-81
2022/10/22 12:45:35;;;;;;;14.43;12.93;;;;;;;;;;6622051;28;20178;-82
2022/10/22 12:48:46;;;;;;;17.33;15.50;;;;;;;;;;6621606;28;20595;-82
2022/10/22 12:51:59;;;;;;;15.73;13.50;;;;;;;;;;6619874;28;20171;-83
2022/10/22 12:55:18;;;;;;;17.20;12.27;;;;;;;;;;6619407;28;20205;-82
2022/10/22 12:58:35;;;;;;;19.67;13.43;;;;;;;;;;6619500;28;20195;-82
2022/10/22 13:01:47;;;;;;;16.30;13.23;;;;;;;;;;6619207;28;20199;-81
2022/10/22 13:05:10;;;;;;;17.37;14.57;;;;;;;;;;6619208;28;20574;-82
2022/10/22 13:08:25;;;;;;;16.23;14.33;;;;;;;;;;6619456;28;20789;-82
2022/10/22 13:11:40;;;;;;;17.13;13.00;;;;;;;;;;6621025;28;20229;-82
2022/10/22 13:14:51;;;;;;;15.33;12.67;;;;;;;;;;6624955;28;20556;-82
2022/10/22 13:18:17;;;;;;;15.07;12.33;;;;;;;;;;6627632;28;20221;-82
2022/10/22 13:21:36;;;;;;;13.50;11.47;;;;;;;;;;6626566;28;20597;-81
2022/10/22 13:24:47;;;;;;;15.07;12.57;;;;;;;;;;6626522;28;20254;-81
2022/10/22 13:27:59;;;;;;;17.33;13.63;;;;;;;;;;6626466;28;20168;-81
2022/10/22 13:31:21;;;;;;;20.67;14.90;;;;;;;;;;6626524;28;20520;-80
2022/10/22 13:34:32;;;;;;;17.40;13.50;;;;;;;;;;6626592;28;20255;-80
2022/10/22 13:37:46;;;;;;;17.37;13.40;;;;;;;;;;6626129;28;20172;-82
2022/10/22 13:40:58;;;;;;;16.33;13.53;;;;;;;;;;6625810;28;20172;-80
2022/10/22 13:44:08;;;;;;;19.47;14.47;;;;;;;;;;6626107;28;20199;-80
2022/10/22 13:47:28;;;;;;;18.87;14.37;;;;;;;;;;6625741;28;20262;-80
2022/10/22 13:50:38;;;;;;;18.87;15.10;;;;;;;;;;6626007;28;20500;-79
2022/10/22 13:53:50;;;;;;;18.13;14.60;;;;;;;;;;6625854;28;20171;-80
2022/10/22 13:57:00;;;;;;;17.27;14.47;;;;;;;;;;6625376;28;20224;-80
2022/10/22 14:00:14;;;;;;;18.67;15.03;;;;;;;;;;6625422;28;20194;-80
2022/10/22 14:03:29;;;;;;;18.10;15.03;;;;;;;;;;6625573;28;20210;-81
2022/10/22 14:06:39;;;;;;;16.50;14.40;;;;;;;;;;6626511;28;20286;-81
2022/10/22 14:09:49;;;;;;;17.73;14.77;;;;;;;;;;6625085;28;20164;-81
2022/10/22 14:13:00;;;;;;;15.93;14.10;;;;;;;;;;6625272;28;20555;-81
2022/10/22 14:16:16;;;;;;;18.10;14.50;;;;;;;;;;6624847;28;20163;-81
2022/10/22 14:19:27;;;;;;;17.33;14.33;;;;;;;;;;6624833;28;20164;-81
2022/10/22 14:22:38;;;;;;;18.23;14.30;;;;;;;;;;6624098;28;20533;-80
2022/10/22 14:25:51;;;;;;;15.90;14.20;;;;;;;;;;6623275;28;20164;-81
2022/10/22 14:29:02;;;;;;;16.70;13.50;;;;;;;;;;6625460;28;20172;-81
2022/10/22 14:32:13;;;;;;;16.27;13.47;;;;;;;;;;6624821;28;20183;-81
2022/10/22 14:35:24;;;;;;;17.57;13.30;;;;;;;;;;6624557;28;20572;-81
2022/10/22 14:38:34;;;;;;;16.87;13.93;;;;;;;;;;6624813;28;20168;-81
2022/10/22 14:41:44;;;;;;;17.00;13.27;;;;;;;;;;6625177;28;20203;-81
2022/10/22 14:44:55;;;;;;;18.47;14.30;;;;;;;;;;6606506;28;20180;-80
2022/10/22 14:48:05;;;;;;;17.90;14.07;;;;;;;;;;6625377;28;20221;-80
2022/10/22 14:51:17;;;;;;;17.87;13.90;;;;;;;;;;6624580;28;20172;-80
2022/10/22 14:54:27;;;;;;;21.33;15.50;;;;;;;;;;6624502;28;20167;-80
2022/10/22 14:57:38;;;;;;;18.17;15.53;;;;;;;;;;6606281;28;20265;-81
2022/10/22 15:00:48;;;;;;;19.70;16.33;;;;;;;;;;6624298;28;20195;-81
2022/10/22 15:03:58;;;;;;;24.83;18.03;;;;;;;;;;6623935;28;20249;-81
2022/10/22 15:07:09;;;;;;;23.17;17.67;;;;;;;;;;6624624;28;20164;-81
2022/10/22 15:10:20;;;;;;;23.87;17.57;;;;;;;;;;6623108;28;20317;-80
2022/10/22 15:13:31;;;;;;;23.20;18.17;;;;;;;;;;6624107;28;20172;-80
2022/10/22 15:16:41;;;;;;;28.67;21.07;;;;;;;;;;6624374;28;20323;-80
2022/10/22 15:19:52;;;;;;;43.17;31.73;;;;;;;;;;6623529;28;20233;-80
2022/10/22 15:23:02;;;;;;;29.80;23.23;;;;;;;;;;6623764;28;20215;-80
2022/10/22 15:26:13;;;;;;;25.70;20.10;;;;;;;;;;6623823;28;20191;-80
2022/10/22 15:29:24;;;;;;;30.13;22.43;;;;;;;;;;6623299;28;20568;-80
2022/10/22 15:32:34;;;;;;;37.17;24.93;;;;;;;;;;6623280;28;20262;-80
2022/10/22 15:35:44;;;;;;;40.13;25.57;;;;;;;;;;6622645;28;20171;-80
2022/10/22 15:38:55;;;;;;;32.73;22.80;;;;;;;;;;6623633;28;20286;-81
2022/10/22 15:42:08;;;;;;;34.33;24.10;;;;;;;;;;6623085;28;20195;-81
2022/10/22 15:45:20;;;;;;;31.87;21.93;;;;;;;;;;6623153;28;20168;-80
2022/10/22 15:48:31;;;;;;;36.53;23.60;;;;;;;;;;6623600;28;20168;-80
2022/10/22 15:51:41;;;;;;;29.33;21.77;;;;;;;;;;6623537;28;20249;-80
2022/10/22 15:54:51;;;;;;;29.57;22.17;;;;;;;;;;6623062;28;20646;-81
2022/10/22 15:58:02;;;;;;;24.80;19.23;;;;;;;;;;6623775;28;20301;-81
2022/10/22 16:01:13;;;;;;;22.77;17.67;;;;;;;;;;6623093;28;20206;-80
2022/10/22 16:04:24;;;;;;;24.47;18.70;;;;;;;;;;6604730;28;20211;-80
2022/10/22 16:07:34;;;;;;;26.20;19.43;;;;;;;;;;6622995;28;20206;-81
2022/10/22 16:10:45;;;;;;;24.00;18.33;;;;;;;;;;6623380;28;20524;-80
2022/10/22 16:13:56;;;;;;;21.30;18.13;;;;;;;;;;6622402;28;20621;-81
2022/10/22 16:17:07;;;;;;;23.40;20.43;;;;;;;;;;6623419;28;20223;-81
2022/10/22 16:20:17;;;;;;;31.03;24.57;;;;;;;;;;6622660;28;20171;-80
2022/10/22 16:23:28;;;;;;;27.47;21.13;;;;;;;;;;6622417;28;20203;-81
2022/10/22 16:26:38;;;;;;;25.50;19.47;;;;;;;;;;6622869;28;20178;-82
2022/10/22 16:29:48;;;;;;;35.07;23.97;;;;;;;;;;6622192;28;20168;-81
2022/10/22 16:32:59;;;;;;;24.30;19.73;;;;;;;;;;6622579;28;20176;-81
2022/10/22 16:36:16;;;;;;;28.73;20.33;;;;;;;;;;6622379;28;20586;-82
2022/10/22 16:39:27;;;;;;;32.20;23.33;;;;;;;;;;6604504;28;20182;-80
2022/10/22 16:42:38;;;;;;;29.77;22.27;;;;;;;;;;6621947;28;20211;-81
2022/10/22 16:45:49;;;;;;;32.13;24.33;;;;;;;;;;6623232;28;20221;-80
2022/10/22 16:48:59;;;;;;;35.37;24.47;;;;;;;;;;6631203;28;20521;-81
2022/10/22 16:52:09;;;;;;;28.37;20.47;;;;;;;;;;6631499;28;20186;-81
2022/10/22 16:55:20;;;;;;;29.50;21.43;;;;;;;;;;6630713;28;20196;-80
2022/10/22 16:58:32;;;;;;;24.90;18.43;;;;;;;;;;6629994;28;20194;-81
2022/10/22 17:01:42;;;;;;;30.33;22.17;;;;;;;;;;6630470;28;20178;-80
2022/10/22 17:04:52;;;;;;;34.63;23.37;;;;;;;;;;6629233;28;20198;-80
2022/10/22 17:08:03;;;;;;;36.57;24.60;;;;;;;;;;6628381;28;20175;-81
2022/10/22 17:11:18;;;;;;;27.67;20.37;;;;;;;;;;6631319;28;20167;-81
2022/10/22 17:14:29;;;;;;;27.67;22.20;;;;;;;;;;6630392;28;20202;-82
2022/10/22 17:17:39;;;;;;;26.07;19.53;;;;;;;;;;6613875;28;20207;-82
2022/10/22 17:20:50;;;;;;;24.13;19.17;;;;;;;;;;6631178;28;20172;-81
2022/10/22 17:24:00;;;;;;;22.40;18.40;;;;;;;;;;6630408;28;20199;-81
2022/10/22 17:27:10;;;;;;;23.17;18.37;;;;;;;;;;6630958;28;20215;-81
2022/10/22 17:30:24;;;;;;;21.53;18.00;;;;;;;;;;6631066;28;20231;-81
2022/10/22 17:33:35;;;;;;;23.40;17.23;;;;;;;;;;6630583;28;20172;-82
2022/10/22 17:36:45;;;;;;;20.27;17.37;;;;;;;;;;6630579;28;20172;-82
2022/10/22 17:39:56;;;;;;;24.97;19.17;;;;;;;;;;6630529;28;20172;-82
2022/10/22 17:43:06;;;;;;;25.20;20.03;;;;;;;;;;6630077;28;20214;-82
2022/10/22 17:46:18;;;;;;;23.03;19.33;;;;;;;;;;6630445;28;20612;-82
2022/10/22 17:49:29;;;;;;;21.70;18.70;;;;;;;;;;6630795;28;20556;-82
2022/10/22 17:52:42;;;;;;;25.87;19.93;;;;;;;;;;6630384;28;20171;-82
2022/10/22 17:56:02;;;;;;;26.03;20.67;;;;;;;;;;6630637;28;20310;-83
2022/10/22 17:59:14;;;;;;;28.10;20.50;;;;;;;;;;6627048;28;20196;-82
2022/10/22 18:02:25;;;;;;;23.47;19.37;;;;;;;;;;6625434;28;20210;-81
2022/10/22 18:05:35;;;;;;;24.70;19.40;;;;;;;;;;6623560;28;20167;-82
2022/10/22 18:08:45;;;;;;;23.63;18.43;;;;;;;;;;6623689;28;20214;-82
2022/10/22 18:11:56;;;;;;;23.43;18.70;;;;;;;;;;6623586;28;20342;-82
2022/10/22 18:15:06;;;;;;;23.90;18.60;;;;;;;;;;6625327;28;20245;-83
2022/10/22 18:18:17;;;;;;;22.97;18.70;;;;;;;;;;6607713;28;20175;-82
2022/10/22 18:21:31;;;;;;;21.13;17.90;;;;;;;;;;6624260;28;20258;-83
2022/10/22 18:24:41;;;;;;;22.43;18.47;;;;;;;;;;6623264;28;20172;-83
2022/10/22 18:27:53;;;;;;;21.47;18.13;;;;;;;;;;6623057;28;20255;-82
2022/10/22 18:31:04;;;;;;;23.93;18.40;;;;;;;;;;6622906;28;20194;-83
2022/10/22 18:34:15;;;;;;;19.73;16.93;;;;;;;;;;6624229;28;20217;-82
2022/10/22 18:37:25;;;;;;;22.50;18.60;;;;;;;;;;6625187;28;20168;-82
2022/10/22 18:40:42;;;;;;;22.83;18.77;;;;;;;;;;6625205;28;20256;-82